createdAt,value
2019-05-14T00:02:02.908Z,6.10
2019-05-14T00:04:31.919Z,6.10
2019-05-14T00:07:01.516Z,6.10
2019-05-14T00:09:32.198Z,6.10
2019-05-14T00:12:02.802Z,6.10
2019-05-14T00:14:39.766Z,6.10
2019-05-14T00:17:03.535Z,6.10
2019-05-14T00:19:32.976Z,6.10
2019-05-14T00:22:02.415Z,6.10
2019-05-14T00:24:32.343Z,6.10
2019-05-14T00:27:02.237Z,6.10
2019-05-14T00:29:33.716Z,6.00
2019-05-14T00:32:03.322Z,6.00
2019-05-14T00:34:32.745Z,6.00
2019-05-14T00:37:02.194Z,5.90
2019-05-14T00:39:32.020Z,5.90
2019-05-14T00:42:01.915Z,5.80
2019-05-14T00:44:32.329Z,5.80
2019-05-14T00:47:02.319Z,5.80
2019-05-14T00:49:31.885Z,5.90
2019-05-14T00:52:02.270Z,5.80
2019-05-14T00:54:35.917Z,5.80
2019-05-14T00:57:06.873Z,5.80
2019-05-14T00:59:36.306Z,5.80
2019-05-14T01:02:05.729Z,5.80
2019-05-14T01:04:35.167Z,5.80
2019-05-14T01:07:04.649Z,5.80
2019-05-14T01:09:34.013Z,5.70
2019-05-14T01:12:03.494Z,5.80
2019-05-14T01:14:32.855Z,5.70
2019-05-14T01:17:02.227Z,5.70
2019-05-14T01:19:33.091Z,5.70
2019-05-14T01:22:02.495Z,5.70
2019-05-14T01:24:33.025Z,5.70
2019-05-14T01:27:02.473Z,5.70
2019-05-14T01:29:32.012Z,5.70
2019-05-14T01:32:01.453Z,5.60
2019-05-14T01:34:32.342Z,5.60
2019-05-14T01:37:02.507Z,5.60
2019-05-14T01:39:32.306Z,5.60
2019-05-14T01:42:02.521Z,5.60
2019-05-14T01:44:32.155Z,5.60
2019-05-14T01:47:02.080Z,5.50
2019-05-14T01:49:31.913Z,5.50
2019-05-14T01:52:02.649Z,5.50
2019-05-14T01:54:32.105Z,5.50
2019-05-14T01:57:02.139Z,5.50
2019-05-14T01:59:32.463Z,5.50
2019-05-14T02:02:02.499Z,5.50
2019-05-14T02:04:31.994Z,5.40
2019-05-14T02:07:02.249Z,5.40
2019-05-14T02:09:32.020Z,5.40
2019-05-14T02:12:02.450Z,5.40
2019-05-14T02:14:31.918Z,5.40
2019-05-14T02:17:09.164Z,5.40
2019-05-14T02:19:38.685Z,5.40
2019-05-14T02:22:11.157Z,5.40
2019-05-14T02:24:41.798Z,5.40
2019-05-14T02:27:12.396Z,5.30
2019-05-14T02:29:42.914Z,5.30
2019-05-14T02:32:12.361Z,5.30
2019-05-14T02:34:41.793Z,5.30
2019-05-14T02:37:11.240Z,5.20
2019-05-14T02:39:41.275Z,5.20
2019-05-14T02:42:10.835Z,5.20
2019-05-14T02:44:41.084Z,5.20
2019-05-14T02:47:10.611Z,5.20
2019-05-14T02:49:40.261Z,5.20
2019-05-14T02:52:10.389Z,5.10
2019-05-14T02:54:40.682Z,5.10
2019-05-14T02:57:10.927Z,5.10
2019-05-14T02:59:40.451Z,5.10
2019-05-14T03:02:10.439Z,5.10
2019-05-14T03:04:40.182Z,5.00
2019-05-14T03:07:11.354Z,5.10
2019-05-14T03:09:40.985Z,5.10
2019-05-14T03:12:10.642Z,5.10
2019-05-14T03:14:40.313Z,5.10
2019-05-14T03:17:10.654Z,5.20
2019-05-14T03:19:40.938Z,5.10
2019-05-14T03:22:10.637Z,5.10
2019-05-14T03:24:40.187Z,5.20
2019-05-14T03:27:10.185Z,5.10
2019-05-14T03:29:40.506Z,5.10
2019-05-14T03:32:13.132Z,5.10
2019-05-14T03:34:43.477Z,5.00
2019-05-14T03:37:14.135Z,5.10
2019-05-14T03:39:43.884Z,5.10
2019-05-14T03:42:13.440Z,5.00
2019-05-14T03:44:42.859Z,5.00
2019-05-14T03:47:12.279Z,4.90
2019-05-14T03:49:41.730Z,5.00
2019-05-14T03:52:11.139Z,5.00
2019-05-14T03:54:41.307Z,5.00
2019-05-14T03:57:11.790Z,5.00
2019-05-14T03:59:41.374Z,5.00
2019-05-14T04:02:10.962Z,5.00
2019-05-14T04:04:41.116Z,5.00
2019-05-14T04:07:11.905Z,5.00
2019-05-14T04:09:43.553Z,5.00
2019-05-14T04:12:15.178Z,5.10
2019-05-14T04:14:46.355Z,5.20
2019-05-14T04:17:25.506Z,5.20
2019-05-14T04:19:51.713Z,5.20
2019-05-14T04:22:23.933Z,5.20
2019-05-14T04:24:55.490Z,5.20
2019-05-14T04:27:29.815Z,5.20
2019-05-14T04:30:01.289Z,5.30
2019-05-14T04:32:31.356Z,5.30
2019-05-14T04:35:01.709Z,5.30
2019-05-14T04:37:31.973Z,5.50
2019-05-14T04:40:02.271Z,5.50
2019-05-14T04:42:31.777Z,5.60
2019-05-14T04:45:05.546Z,5.80
2019-05-14T04:47:37.169Z,5.90
2019-05-14T04:50:06.019Z,6.00
2019-05-14T04:52:35.574Z,6.20
2019-05-14T04:55:05.860Z,6.60
2019-05-14T04:57:35.367Z,8.10
2019-05-14T05:00:06.138Z,9.80
2019-05-14T05:02:39.715Z,11.00
2019-05-14T05:05:09.062Z,12.00
2019-05-14T05:07:40.394Z,13.50
2019-05-14T05:10:10.309Z,14.20
2019-05-14T05:12:40.109Z,14.30
2019-05-14T05:15:09.994Z,14.80
2019-05-14T05:17:47.058Z,15.00
2019-05-14T05:20:10.593Z,14.90
2019-05-14T05:22:42.890Z,15.00
2019-05-14T05:25:12.632Z,15.60
2019-05-14T05:27:42.583Z,15.90
2019-05-14T05:30:12.249Z,16.70
2019-05-14T05:32:41.728Z,17.60
2019-05-14T05:35:11.442Z,18.10
2019-05-14T05:37:40.902Z,18.50
2019-05-14T05:40:10.624Z,18.40
2019-05-14T05:42:40.076Z,18.60
2019-05-14T05:45:10.294Z,18.70
2019-05-14T05:47:54.069Z,19.10
2019-05-14T05:50:12.522Z,19.50
2019-05-14T05:52:41.953Z,19.40
2019-05-14T05:55:13.492Z,19.80
2019-05-14T05:57:42.928Z,20.60
2019-05-14T06:00:12.727Z,20.80
2019-05-14T06:02:42.168Z,21.20
2019-05-14T06:05:11.604Z,21.70
2019-05-14T06:07:41.097Z,22.30
2019-05-14T06:10:10.695Z,22.50
2019-05-14T06:12:40.212Z,22.10
2019-05-14T06:15:10.163Z,22.00
2019-05-14T06:17:39.624Z,22.50
2019-05-14T06:20:09.468Z,23.60
2019-05-14T06:22:38.928Z,23.40
2019-05-14T06:25:11.135Z,23.70
2019-05-14T06:27:39.741Z,24.50
2019-05-14T06:30:09.926Z,23.00
2019-05-14T06:32:39.403Z,22.00
2019-05-14T06:35:09.370Z,22.90
2019-05-14T06:37:38.820Z,22.00
2019-05-14T06:40:09.050Z,22.20
2019-05-14T06:42:39.371Z,22.90
2019-05-14T06:45:09.689Z,22.90
2019-05-14T06:47:39.156Z,23.70
2019-05-14T06:50:08.885Z,23.20
2019-05-14T06:52:38.872Z,23.70
2019-05-14T06:55:09.287Z,23.90
2019-05-14T06:57:39.750Z,23.60
2019-05-14T07:00:09.723Z,23.60
2019-05-14T07:02:44.017Z,23.90
2019-05-14T07:05:13.366Z,24.20
2019-05-14T07:07:42.729Z,23.40
2019-05-14T07:10:14.412Z,22.40
2019-05-14T07:12:43.903Z,22.40
2019-05-14T07:15:14.861Z,23.10
2019-05-14T07:17:44.283Z,21.40
2019-05-14T07:20:14.297Z,22.30
2019-05-14T07:22:43.781Z,22.60
2019-05-14T07:25:13.146Z,23.80
2019-05-14T07:27:42.567Z,24.80
2019-05-14T07:30:13.949Z,24.30
2019-05-14T07:32:43.398Z,24.90
2019-05-14T07:35:14.061Z,24.80
2019-05-14T07:37:43.412Z,24.20
2019-05-14T07:40:13.187Z,23.80
2019-05-14T07:42:42.613Z,23.40
2019-05-14T07:45:12.414Z,22.40
2019-05-14T07:47:41.847Z,21.90
2019-05-14T07:50:11.847Z,21.20
2019-05-14T07:52:45.258Z,20.40
2019-05-14T07:55:14.929Z,19.50
2019-05-14T07:57:44.274Z,18.30
2019-05-14T08:00:14.143Z,17.40
2019-05-14T08:02:43.583Z,16.50
2019-05-14T08:05:13.373Z,15.80
2019-05-14T08:07:42.830Z,15.40
2019-05-14T08:10:12.505Z,14.90
2019-05-14T08:12:41.993Z,14.60
2019-05-14T08:15:17.757Z,14.30
2019-05-14T08:17:43.776Z,14.20
2019-05-14T08:20:13.671Z,14.30
2019-05-14T08:22:43.192Z,14.40
2019-05-14T08:25:12.908Z,14.20
2019-05-14T08:27:42.428Z,14.10
2019-05-14T08:30:12.309Z,14.10
2019-05-14T08:32:41.744Z,14.20
2019-05-14T08:35:11.399Z,14.10
2019-05-14T08:37:40.903Z,14.30
2019-05-14T08:40:16.541Z,14.30
2019-05-14T08:42:42.719Z,14.50
2019-05-14T08:45:14.067Z,14.50
2019-05-14T08:47:43.548Z,14.60
2019-05-14T08:50:14.751Z,14.80
2019-05-14T08:52:44.181Z,14.90
2019-05-14T08:55:18.477Z,14.90
2019-05-14T08:57:48.985Z,14.80
2019-05-14T09:00:19.881Z,14.80
2019-05-14T09:02:49.409Z,14.80
2019-05-14T09:05:18.925Z,15.30
2019-05-14T09:07:50.129Z,15.60
2019-05-14T09:10:19.563Z,15.70
2019-05-14T09:12:49.260Z,15.80
2019-05-14T09:15:18.791Z,15.70
2019-05-14T09:17:48.772Z,16.00
2019-05-14T09:20:18.840Z,16.00
2019-05-14T09:22:49.001Z,16.00
2019-05-14T09:25:19.196Z,16.30
2019-05-14T09:27:49.471Z,16.60
2019-05-14T09:30:19.209Z,16.90
2019-05-14T09:32:49.429Z,16.90
2019-05-14T09:35:19.987Z,16.50
2019-05-14T09:37:51.303Z,15.90
2019-05-14T09:40:20.695Z,16.20
2019-05-14T09:42:51.178Z,16.70
2019-05-14T09:45:20.674Z,16.20
2019-05-14T09:47:50.823Z,16.20
2019-05-14T09:50:23.457Z,16.00
2019-05-14T09:52:51.800Z,15.90
2019-05-14T09:55:21.287Z,16.10
2019-05-14T09:57:50.729Z,16.40
2019-05-14T10:00:20.529Z,16.90
2019-05-14T10:02:51.605Z,17.20
2019-05-14T10:05:21.111Z,17.20
2019-05-14T10:07:50.628Z,17.10
2019-05-14T10:10:20.245Z,17.50
2019-05-14T10:12:54.064Z,17.50
2019-05-14T10:15:21.078Z,17.10
2019-05-14T10:17:50.599Z,16.90
2019-05-14T10:20:36.530Z,16.70
2019-05-14T10:22:51.343Z,16.50
2019-05-14T10:25:20.923Z,16.30
2019-05-14T10:27:50.389Z,16.10
2019-05-14T10:30:20.260Z,16.20
2019-05-14T10:32:49.727Z,16.10
2019-05-14T10:35:19.401Z,15.80
2019-05-14T10:37:48.891Z,16.10
2019-05-14T10:40:19.014Z,16.20
2019-05-14T10:42:49.579Z,16.20
2019-05-14T10:45:19.543Z,16.10
2019-05-14T10:47:49.511Z,16.10
2019-05-14T10:50:20.355Z,16.20
2019-05-14T10:52:49.811Z,16.10
2019-05-14T10:55:20.891Z,16.00
2019-05-14T10:57:54.125Z,15.90
2019-05-14T11:00:22.119Z,15.90
2019-05-14T11:02:51.641Z,16.10
2019-05-14T11:05:21.153Z,16.10
2019-05-14T11:07:50.677Z,15.90
2019-05-14T11:10:20.252Z,16.10
2019-05-14T11:12:50.720Z,16.50
2019-05-14T11:15:20.901Z,16.70
2019-05-14T11:17:50.380Z,16.70
2019-05-14T11:20:20.033Z,16.60
2019-05-14T11:22:49.491Z,16.60
2019-05-14T11:25:19.740Z,16.60
2019-05-14T11:27:49.491Z,16.50
2019-05-14T11:30:19.487Z,16.70
2019-05-14T11:32:49.414Z,16.50
2019-05-14T11:35:19.295Z,16.60
2019-05-14T11:37:49.767Z,16.70
2019-05-14T11:40:19.571Z,16.80
2019-05-14T11:42:49.624Z,17.20
2019-05-14T11:45:19.493Z,17.50
2019-05-14T11:47:49.062Z,17.80
2019-05-14T11:50:19.456Z,18.20
2019-05-14T11:52:51.220Z,18.00
2019-05-14T11:55:20.915Z,18.00
2019-05-14T11:57:50.357Z,17.90
2019-05-14T12:00:20.102Z,17.70
2019-05-14T12:02:49.550Z,17.70
2019-05-14T12:05:19.168Z,17.70
2019-05-14T12:07:48.667Z,17.70
2019-05-14T12:10:19.001Z,17.60
2019-05-14T12:12:49.180Z,17.10
2019-05-14T12:15:18.930Z,16.70
2019-05-14T12:17:51.040Z,16.70
2019-05-14T12:20:19.816Z,17.10
2019-05-14T12:22:49.239Z,17.40
2019-05-14T12:25:19.034Z,17.50
2019-05-14T12:27:49.554Z,17.60
2019-05-14T12:30:20.256Z,17.70
2019-05-14T12:32:50.301Z,17.90
2019-05-14T12:35:20.820Z,18.00
2019-05-14T12:37:51.319Z,17.90
2019-05-14T12:40:20.909Z,18.10
2019-05-14T12:42:50.415Z,18.00
2019-05-14T12:45:20.198Z,17.60
2019-05-14T12:47:50.223Z,17.50
2019-05-14T12:50:20.876Z,17.50
2019-05-14T12:52:50.236Z,17.30
2019-05-14T12:55:19.798Z,17.40
2019-05-14T12:57:49.198Z,17.70
2019-05-14T13:00:19.078Z,17.90
2019-05-14T13:02:48.470Z,17.60
2019-05-14T13:05:18.489Z,17.60
2019-05-14T13:07:50.999Z,17.80
2019-05-14T13:10:19.476Z,18.20
2019-05-14T13:12:48.844Z,18.30
2019-05-14T13:15:20.199Z,18.20
2019-05-14T13:17:49.917Z,17.80
2019-05-14T13:20:19.611Z,17.40
2019-05-14T13:22:50.216Z,17.40
2019-05-14T13:25:19.967Z,17.40
2019-05-14T13:27:49.480Z,17.80
2019-05-14T13:30:19.407Z,17.80
2019-05-14T13:32:49.085Z,17.70
2019-05-14T13:35:19.568Z,17.50
2019-05-14T13:37:49.355Z,17.30
2019-05-14T13:40:21.232Z,17.00
2019-05-14T13:42:50.563Z,16.60
2019-05-14T13:45:20.364Z,16.40
2019-05-14T13:47:49.799Z,16.40
2019-05-14T13:50:20.165Z,16.30
2019-05-14T13:53:02.928Z,16.30
2019-05-14T13:55:21.149Z,16.40
2019-05-14T13:57:51.550Z,16.60
2019-05-14T14:00:21.606Z,16.80
2019-05-14T14:02:51.060Z,17.00
2019-05-14T14:05:20.745Z,17.20
2019-05-14T14:07:50.265Z,16.90
2019-05-14T14:10:19.870Z,17.30
2019-05-14T14:12:49.861Z,17.60
2019-05-14T14:15:19.530Z,17.60
2019-05-14T14:17:49.572Z,17.90
2019-05-14T14:20:19.642Z,17.80
2019-05-14T14:22:49.271Z,17.60
2019-05-14T14:25:18.960Z,17.60
2019-05-14T14:27:49.389Z,17.30
2019-05-14T14:30:19.600Z,17.20
2019-05-14T14:32:49.683Z,17.00
2019-05-14T14:35:23.660Z,16.90
2019-05-14T14:37:51.792Z,16.80
2019-05-14T14:40:23.175Z,17.00
2019-05-14T14:42:53.060Z,17.00
2019-05-14T14:45:22.800Z,17.20
2019-05-14T14:47:52.248Z,17.40
2019-05-14T14:50:21.992Z,17.40
2019-05-14T14:52:51.430Z,17.30
2019-05-14T14:55:22.060Z,17.30
2019-05-14T14:57:54.406Z,17.20
2019-05-14T15:00:22.880Z,16.90
2019-05-14T15:02:52.320Z,16.70
2019-05-14T15:05:21.842Z,16.60
2019-05-14T15:07:51.305Z,16.60
2019-05-14T15:10:20.752Z,16.80
2019-05-14T15:12:50.188Z,16.90
2019-05-14T15:15:19.706Z,17.00
2019-05-14T15:17:49.167Z,16.90
2019-05-14T15:20:19.523Z,16.80
2019-05-14T15:22:49.660Z,16.70
2019-05-14T15:25:20.891Z,16.80
2019-05-14T15:27:50.655Z,17.00
2019-05-14T15:30:20.391Z,16.90
2019-05-14T15:32:51.349Z,17.00
2019-05-14T15:35:24.032Z,16.90
2019-05-14T15:37:53.404Z,16.90
2019-05-14T15:40:23.076Z,16.70
2019-05-14T15:42:52.520Z,16.80
2019-05-14T15:45:21.943Z,16.70
2019-05-14T15:47:51.380Z,16.80
2019-05-14T15:50:20.806Z,16.80
2019-05-14T15:52:50.274Z,16.70
2019-05-14T15:55:19.764Z,17.00
2019-05-14T15:57:49.301Z,17.00
2019-05-14T16:00:19.902Z,17.00
2019-05-14T16:02:50.350Z,16.90
2019-05-14T16:05:20.001Z,16.90
2019-05-14T16:07:49.626Z,16.70
2019-05-14T16:10:21.674Z,16.40
2019-05-14T16:12:50.336Z,16.20
2019-05-14T16:15:19.941Z,16.20
2019-05-14T16:18:05.522Z,16.30
2019-05-14T16:20:20.596Z,16.30
2019-05-14T16:22:50.117Z,16.40
2019-05-14T16:25:19.672Z,16.30
2019-05-14T16:27:49.200Z,15.90
2019-05-14T16:30:19.307Z,15.80
2019-05-14T16:32:48.915Z,15.60
2019-05-14T16:35:21.315Z,15.60
2019-05-14T16:37:49.746Z,15.60
2019-05-14T16:40:19.513Z,15.50
2019-05-14T16:42:49.050Z,15.40
2019-05-14T16:45:19.636Z,15.30
2019-05-14T16:47:49.100Z,15.30
2019-05-14T16:50:19.043Z,15.20
2019-05-14T16:52:49.481Z,15.10
2019-05-14T16:55:26.909Z,15.10
2019-05-14T16:57:50.464Z,14.90
2019-05-14T17:00:20.425Z,14.80
2019-05-14T17:02:50.007Z,14.80
2019-05-14T17:05:19.540Z,14.80
2019-05-14T17:07:49.068Z,14.80
2019-05-14T17:10:19.664Z,14.90
2019-05-14T17:12:56.845Z,14.80
2019-05-14T17:15:21.038Z,14.60
2019-05-14T17:17:50.523Z,14.50
2019-05-14T17:20:24.198Z,14.30
2019-05-14T17:22:53.728Z,14.20
2019-05-14T17:25:27.265Z,14.20
2019-05-14T17:27:54.446Z,14.10
2019-05-14T17:30:23.895Z,14.00
2019-05-14T17:32:53.391Z,14.00
2019-05-14T17:35:22.975Z,13.90
2019-05-14T17:37:52.504Z,13.80
2019-05-14T17:40:22.011Z,13.80
2019-05-14T17:42:51.466Z,13.70
2019-05-14T17:45:20.919Z,13.60
2019-05-14T17:47:50.396Z,13.60
2019-05-14T17:50:20.051Z,13.60
2019-05-14T17:52:56.423Z,13.60
2019-05-14T17:55:20.699Z,13.60
2019-05-14T17:57:58.493Z,13.70
2019-05-14T18:00:25.150Z,13.70
2019-05-14T18:02:54.671Z,13.50
2019-05-14T18:05:24.270Z,13.40
2019-05-14T18:07:53.875Z,13.20
2019-05-14T18:10:23.488Z,13.20
2019-05-14T18:12:53.086Z,13.20
2019-05-14T18:15:22.624Z,13.20
2019-05-14T18:17:52.246Z,13.10
2019-05-14T18:20:21.778Z,13.00
2019-05-14T18:22:52.606Z,12.90
2019-05-14T18:25:22.279Z,12.90
2019-05-14T18:27:54.878Z,12.80
2019-05-14T18:30:24.500Z,12.80
2019-05-14T18:32:54.065Z,12.70
2019-05-14T18:35:24.883Z,12.70
2019-05-14T18:37:54.358Z,12.60
2019-05-14T18:40:25.429Z,12.50
2019-05-14T18:42:55.044Z,12.50
2019-05-14T18:45:24.825Z,12.50
2019-05-14T18:47:54.355Z,12.40
2019-05-14T18:50:23.823Z,12.30
2019-05-14T18:52:53.761Z,12.20
2019-05-14T18:55:24.847Z,12.20
2019-05-14T18:57:54.419Z,12.10
2019-05-14T19:00:24.017Z,12.10
2019-05-14T19:02:54.380Z,12.00
2019-05-14T19:05:24.705Z,12.00
2019-05-14T19:07:54.175Z,11.90
2019-05-14T19:10:28.013Z,11.90
2019-05-14T19:12:58.808Z,11.80
2019-05-14T19:15:28.670Z,11.70
2019-05-14T19:18:01.387Z,11.70
2019-05-14T19:20:30.096Z,11.60
2019-05-14T19:23:00.205Z,11.60
2019-05-14T19:25:29.995Z,11.50
2019-05-14T19:27:59.512Z,11.50
2019-05-14T19:30:29.281Z,11.40
2019-05-14T19:32:58.813Z,11.40
2019-05-14T19:35:28.776Z,11.30
2019-05-14T19:37:59.607Z,11.20
2019-05-14T19:40:29.203Z,11.20
2019-05-14T19:42:58.664Z,11.20
2019-05-14T19:45:28.569Z,11.10
2019-05-14T19:47:58.430Z,11.10
2019-05-14T19:50:29.415Z,11.00
2019-05-14T19:52:59.020Z,11.00
2019-05-14T19:55:29.022Z,10.90
2019-05-14T19:57:59.353Z,10.90
2019-05-14T20:00:30.791Z,10.80
2019-05-14T20:03:06.065Z,10.80
2019-05-14T20:05:35.697Z,10.80
2019-05-14T20:08:08.611Z,10.70
2019-05-14T20:10:39.129Z,10.70
2019-05-14T20:13:08.679Z,10.60
2019-05-14T20:15:38.905Z,10.50
2019-05-14T20:18:09.013Z,10.50
2019-05-14T20:24:02.801Z,10.40
2019-05-14T20:26:34.697Z,10.40
2019-05-14T20:29:05.607Z,10.30
2019-05-14T20:31:35.090Z,10.30
2019-05-14T20:34:04.891Z,10.20
2019-05-14T20:36:35.655Z,10.10
2019-05-14T20:39:08.703Z,10.10
2019-05-14T20:41:38.547Z,10.00
2019-05-14T20:44:08.183Z,9.90
2019-05-14T20:46:38.311Z,9.90
2019-05-14T20:49:08.856Z,9.90
2019-05-14T20:51:39.042Z,9.80
2019-05-14T20:54:09.176Z,9.70
2019-05-14T20:56:40.216Z,9.70
2019-05-14T20:59:09.919Z,9.70
2019-05-14T21:01:39.473Z,9.60
2019-05-14T21:04:09.160Z,9.60
2019-05-14T21:06:39.136Z,9.50
2019-05-14T21:09:08.739Z,9.50
2019-05-14T21:11:38.619Z,9.40
2019-05-14T21:14:08.949Z,9.40
2019-05-14T21:16:40.092Z,9.40
2019-05-14T21:19:10.365Z,9.30
2019-05-14T21:21:39.831Z,9.30
2019-05-14T21:24:09.296Z,9.20
2019-05-14T21:26:40.128Z,9.20
2019-05-14T21:29:09.832Z,9.10
2019-05-14T21:31:39.353Z,9.10
2019-05-14T21:34:08.878Z,9.10
2019-05-14T21:36:39.140Z,9.10
2019-05-14T21:39:08.745Z,9.10
2019-05-14T21:41:38.795Z,9.10
2019-05-14T21:44:08.669Z,9.10
2019-05-14T21:46:39.779Z,9.10
2019-05-14T21:49:11.752Z,9.00
2019-05-14T21:51:41.207Z,9.00
2019-05-14T21:54:10.677Z,9.00
2019-05-14T21:56:40.160Z,9.00
2019-05-14T21:59:09.824Z,9.00
2019-05-14T22:01:39.717Z,8.90
2019-05-14T22:04:11.582Z,8.90
2019-05-14T22:06:41.396Z,8.90
2019-05-14T22:09:11.196Z,8.90
2019-05-14T22:11:40.729Z,8.80
2019-05-14T22:14:10.360Z,8.70
2019-05-14T22:16:39.904Z,8.70
2019-05-14T22:19:09.650Z,8.70
2019-05-14T22:21:41.836Z,8.70
2019-05-14T22:24:10.214Z,8.60
2019-05-14T22:26:39.681Z,8.60
2019-05-14T22:29:09.126Z,8.60
2019-05-14T22:31:38.923Z,8.50
2019-05-14T22:34:08.904Z,8.50
2019-05-14T22:36:38.850Z,8.40
2019-05-14T22:39:08.550Z,8.40
2019-05-14T22:41:38.422Z,8.30
2019-05-14T22:44:09.569Z,8.30
2019-05-14T22:46:40.326Z,8.30
2019-05-14T22:49:10.041Z,8.20
2019-05-14T22:51:39.616Z,8.20
2019-05-14T22:54:09.154Z,8.20
2019-05-14T22:56:39.152Z,8.10
2019-05-14T22:59:08.815Z,8.00
2019-05-14T23:01:41.135Z,8.10
2019-05-14T23:04:10.617Z,8.00
2019-05-14T23:06:40.170Z,8.00
2019-05-14T23:09:09.648Z,7.90
2019-05-14T23:11:39.119Z,7.90
2019-05-14T23:14:08.614Z,7.90
2019-05-14T23:16:41.856Z,7.90
2019-05-14T23:19:09.439Z,7.80
2019-05-14T23:21:39.270Z,7.70
2019-05-14T23:24:09.342Z,7.70
2019-05-14T23:26:39.128Z,7.70
2019-05-14T23:29:08.760Z,7.70
2019-05-14T23:31:38.692Z,7.60
2019-05-14T23:34:08.381Z,7.60
2019-05-14T23:36:38.880Z,7.50
2019-05-14T23:39:09.219Z,7.50
2019-05-14T23:41:39.001Z,7.50
2019-05-14T23:44:08.566Z,7.50
2019-05-14T23:46:38.153Z,7.50
2019-05-14T23:49:08.893Z,7.50
2019-05-14T23:51:38.731Z,7.40
2019-05-14T23:54:08.905Z,7.40
2019-05-14T23:56:38.674Z,7.30
2019-05-14T23:59:09.354Z,7.30
